Time;durP1;ratioP1;P1;durP2;ratioP2;P2;SDS_P1;SDS_P2;PMS_P1;PMS_P2;Temp;Humidity;BMP_temperature;BMP_pressure;BME280_temperature;BME280_humidity;BME280_pressure;Samples;Min_cycle;Max_cycle;Signal;HPM_P1;HPM_P2
2024/01/23 00:00:11;;;;;;;5.40;1.50;;;5.50;99.90;;;;;;4981040;28;20107;-82
2024/01/23 00:02:37;;;;;;;3.57;1.27;;;5.50;99.90;;;;;;4982306;28;20049;-80
2024/01/23 00:05:03;;;;;;;3.50;1.20;;;5.50;99.90;;;;;;4980626;28;20156;-80
2024/01/23 00:07:28;;;;;;;5.00;1.30;;;5.50;99.90;;;;;;4975581;28;20134;-81
2024/01/23 00:09:54;;;;;;;4.77;1.30;;;5.60;99.90;;;;;;4973615;28;20058;-81
2024/01/23 00:12:20;;;;;;;3.67;1.60;;;5.60;99.90;;;;;;4976366;28;20031;-81
2024/01/23 00:14:45;;;;;;;4.80;1.93;;;5.60;99.90;;;;;;4976078;28;20045;-81
2024/01/23 00:17:11;;;;;;;2.93;1.33;;;5.60;99.90;;;;;;4975224;28;20066;-81
2024/01/23 00:19:37;;;;;;;4.40;1.60;;;5.70;99.90;;;;;;4975120;28;20031;-81
2024/01/23 00:22:02;;;;;;;4.70;1.40;;;5.80;99.90;;;;;;4976399;28;20031;-79
2024/01/23 00:24:28;;;;;;;3.23;1.40;;;5.90;99.90;;;;;;4974903;28;20636;-81
2024/01/23 00:26:54;;;;;;;5.43;2.00;;;6.00;99.90;;;;;;4973517;28;20043;-82
2024/01/23 00:29:19;;;;;;;4.97;1.30;;;6.10;99.90;;;;;;4973688;28;20050;-81
2024/01/23 00:31:45;;;;;;;4.97;1.47;;;6.20;99.90;;;;;;4976399;28;20031;-83
2024/01/23 00:34:11;;;;;;;2.40;1.10;;;6.30;99.90;;;;;;4976272;28;20031;-81
2024/01/23 00:36:36;;;;;;;4.67;2.10;;;6.30;99.90;;;;;;4975175;28;20023;-82
2024/01/23 00:39:02;;;;;;;4.27;1.00;;;6.40;99.90;;;;;;4957757;28;20137;-80
2024/01/23 00:41:31;;;;;;;5.27;1.77;;;6.30;99.90;;;;;;4976186;28;20045;-81
2024/01/23 00:43:56;;;;;;;4.67;1.40;;;6.30;99.90;;;;;;4975068;28;20042;-81
2024/01/23 00:46:22;;;;;;;3.47;1.20;;;6.40;99.90;;;;;;4976971;28;20359;-81
2024/01/23 00:48:47;;;;;;;1.90;1.00;;;6.50;99.90;;;;;;4975222;28;20018;-82
2024/01/23 00:51:14;;;;;;;3.20;0.93;;;6.60;99.90;;;;;;4976298;28;20126;-82
2024/01/23 00:53:39;;;;;;;2.67;0.97;;;6.60;99.90;;;;;;4975132;28;20085;-82
2024/01/23 00:56:05;;;;;;;2.40;1.00;;;6.80;99.90;;;;;;4958187;28;20023;-81
2024/01/23 00:58:30;;;;;;;2.47;1.03;;;6.80;99.90;;;;;;4973922;28;20258;-81
2024/01/23 01:00:56;;;;;;;3.90;1.13;;;6.80;99.90;;;;;;4974793;28;20035;-81
2024/01/23 01:03:21;;;;;;;3.53;1.27;;;6.70;99.90;;;;;;4973954;28;20081;-81
2024/01/23 01:05:47;;;;;;;2.67;1.10;;;6.70;99.90;;;;;;4974739;28;20135;-80
2024/01/23 01:08:12;;;;;;;4.30;1.13;;;6.60;99.90;;;;;;4974529;28;20035;-81
2024/01/23 01:10:39;;;;;;;3.37;1.30;;;6.70;99.90;;;;;;4974466;28;20074;-81
2024/01/23 01:13:05;;;;;;;2.13;0.93;;;6.60;99.90;;;;;;4958533;28;20030;-82
2024/01/23 01:15:30;;;;;;;2.53;0.93;;;6.50;99.90;;;;;;4958919;28;20049;-82
2024/01/23 01:17:56;;;;;;;3.63;1.60;;;6.30;99.90;;;;;;4975270;28;20090;-82
2024/01/23 01:20:22;;;;;;;2.37;1.13;;;6.20;99.90;;;;;;4974676;28;20042;-82
2024/01/23 01:22:47;;;;;;;2.23;1.20;;;6.10;99.90;;;;;;4976071;28;20034;-82
2024/01/23 01:25:13;;;;;;;2.77;1.07;;;6.00;99.90;;;;;;4976175;28;20039;-81
2024/01/23 01:27:38;;;;;;;3.57;1.13;;;5.90;99.90;;;;;;4974536;28;20030;-82
2024/01/23 01:30:04;;;;;;;2.73;1.27;;;5.80;99.90;;;;;;4973558;28;20042;-80
2024/01/23 01:32:30;;;;;;;3.23;1.17;;;5.80;99.90;;;;;;4975765;28;20033;-82
2024/01/23 01:34:55;;;;;;;3.50;1.30;;;5.70;99.90;;;;;;4975700;28;20027;-81
2024/01/23 01:37:21;;;;;;;3.13;1.37;;;5.70;99.90;;;;;;4975464;28;20038;-82
2024/01/23 01:39:47;;;;;;;3.70;1.23;;;5.60;99.90;;;;;;4974229;28;20039;-81
2024/01/23 01:42:12;;;;;;;3.43;1.13;;;5.60;99.90;;;;;;4975239;28;20489;-82
2024/01/23 01:44:38;;;;;;;2.57;1.00;;;5.60;99.90;;;;;;4977494;28;20051;-82
2024/01/23 01:47:04;;;;;;;3.57;1.40;;;5.50;99.90;;;;;;4976696;28;20046;-82
2024/01/23 01:49:29;;;;;;;2.77;0.90;;;5.50;99.90;;;;;;4974902;28;20030;-80
2024/01/23 01:51:56;;;;;;;3.33;1.00;;;5.50;99.90;;;;;;4976841;28;20023;-81
2024/01/23 01:54:23;;;;;;;4.43;1.10;;;5.40;99.90;;;;;;4976382;28;20031;-81
2024/01/23 01:56:51;;;;;;;5.37;1.47;;;5.50;99.90;;;;;;4976037;28;20019;-81
2024/01/23 01:59:18;;;;;;;3.87;1.20;;;5.50;99.90;;;;;;4976892;28;20050;-80
2024/01/23 02:01:44;;;;;;;5.50;1.10;;;5.60;99.90;;;;;;4976746;28;20038;-80
2024/01/23 02:04:10;;;;;;;4.47;1.30;;;5.60;99.90;;;;;;4977874;28;20091;-81
2024/01/23 02:06:36;;;;;;;3.87;1.10;;;5.60;99.90;;;;;;4975686;28;20050;-81
2024/01/23 02:09:01;;;;;;;4.33;1.20;;;5.60;99.90;;;;;;4976029;28;20018;-82
2024/01/23 02:11:28;;;;;;;3.30;1.10;;;5.60;99.90;;;;;;4976523;28;20030;-81
2024/01/23 02:13:53;;;;;;;4.90;1.40;;;5.50;99.90;;;;;;4974372;28;20031;-81
2024/01/23 02:16:19;;;;;;;4.93;1.30;;;5.40;99.90;;;;;;4975586;28;20160;-82
2024/01/23 02:18:45;;;;;;;3.83;1.30;;;5.40;99.90;;;;;;4974909;28;20542;-82
2024/01/23 02:21:12;;;;;;;5.87;1.20;;;5.40;99.90;;;;;;4974735;28;20034;-81
2024/01/23 02:23:37;;;;;;;3.53;1.17;;;5.40;99.90;;;;;;4975261;28;20050;-81
2024/01/23 02:26:03;;;;;;;5.07;1.30;;;5.30;99.90;;;;;;4976212;28;20035;-81
2024/01/23 02:28:28;;;;;;;4.43;1.40;;;5.40;99.90;;;;;;4976483;28;20623;-82
2024/01/23 02:30:54;;;;;;;4.67;1.40;;;5.30;99.90;;;;;;4976495;28;20027;-81
2024/01/23 02:33:20;;;;;;;2.90;0.90;;;5.30;99.90;;;;;;4975090;28;20793;-82
2024/01/23 02:35:45;;;;;;;5.30;1.30;;;5.30;99.90;;;;;;4958501;28;20015;-82
2024/01/23 02:38:11;;;;;;;3.33;1.23;;;5.40;99.90;;;;;;4976097;28;20029;-82
2024/01/23 02:40:36;;;;;;;3.87;1.00;;;5.40;99.90;;;;;;4975748;28;20043;-82
2024/01/23 02:43:02;;;;;;;4.20;1.77;;;5.40;99.90;;;;;;4975621;28;20051;-82
2024/01/23 02:45:28;;;;;;;2.20;1.20;;;5.30;99.90;;;;;;4975606;28;20081;-80
2024/01/23 02:47:54;;;;;;;3.10;1.20;;;5.40;99.90;;;;;;4975652;28;20039;-81
2024/01/23 02:50:19;;;;;;;5.07;1.10;;;5.40;99.90;;;;;;4974647;28;20045;-82
2024/01/23 02:52:45;;;;;;;3.43;1.23;;;5.40;99.90;;;;;;4975357;28;20478;-81
2024/01/23 02:55:11;;;;;;;4.20;1.30;;;5.40;99.90;;;;;;4975338;28;20031;-82
2024/01/23 02:57:36;;;;;;;4.93;1.20;;;5.30;99.90;;;;;;4974751;28;20094;-80
2024/01/23 03:00:02;;;;;;;3.33;1.20;;;5.30;99.90;;;;;;4976491;28;20031;-80
2024/01/23 03:02:28;;;;;;;5.17;1.40;;;5.30;99.90;;;;;;4975237;28;20041;-82
2024/01/23 03:04:54;;;;;;;5.50;1.70;;;5.40;99.90;;;;;;4974897;28;20083;-81
2024/01/23 03:07:20;;;;;;;2.90;1.20;;;5.40;99.90;;;;;;4975300;28;20042;-82
2024/01/23 03:09:46;;;;;;;4.00;1.03;;;5.40;99.90;;;;;;4978652;28;20054;-81
2024/01/23 03:12:22;;;;;;;4.30;1.57;;;5.40;99.90;;;;;;4980201;28;20031;-82
2024/01/23 03:14:49;;;;;;;4.40;1.40;;;5.40;99.90;;;;;;4979323;28;20054;-82
2024/01/23 03:17:15;;;;;;;3.40;1.17;;;5.40;99.90;;;;;;4978574;28;20019;-81
2024/01/23 03:19:42;;;;;;;3.27;1.10;;;5.30;99.90;;;;;;4977800;28;20535;-81
2024/01/23 03:22:08;;;;;;;4.27;1.00;;;5.30;99.90;;;;;;4978699;28;20157;-82
2024/01/23 03:24:37;;;;;;;3.90;1.13;;;5.30;99.90;;;;;;4960383;28;20019;-82
2024/01/23 03:27:04;;;;;;;2.27;1.10;;;5.30;99.90;;;;;;4977164;28;20793;-80
2024/01/23 03:29:43;;;;;;;4.80;1.10;;;5.20;99.90;;;;;;4977812;28;20470;-80
2024/01/23 03:32:10;;;;;;;4.47;1.20;;;5.20;99.90;;;;;;4978540;28;20029;-81
2024/01/23 03:34:37;;;;;;;4.73;1.37;;;5.20;99.90;;;;;;4978010;28;20030;-82
2024/01/23 03:37:03;;;;;;;5.40;1.20;;;5.20;99.90;;;;;;4977847;28;20030;-80
2024/01/23 03:39:29;;;;;;;4.97;1.30;;;5.20;99.90;;;;;;4977581;28;20062;-80
2024/01/23 03:41:56;;;;;;;3.63;1.57;;;5.20;99.90;;;;;;4978687;28;20188;-81
2024/01/23 03:44:23;;;;;;;3.97;1.10;;;5.30;99.90;;;;;;4977498;28;20034;-82
2024/01/23 03:46:49;;;;;;;4.47;1.57;;;5.30;99.90;;;;;;4978450;28;20097;-81
2024/01/23 03:49:15;;;;;;;8.87;1.50;;;5.20;99.90;;;;;;4978829;28;20034;-82
2024/01/23 03:51:40;;;;;;;3.73;1.07;;;5.20;99.90;;;;;;4980604;28;20074;-80
2024/01/23 03:54:06;;;;;;;2.77;1.10;;;5.20;99.90;;;;;;4962593;28;20089;-81
2024/01/23 03:56:31;;;;;;;5.57;1.20;;;5.30;99.90;;;;;;4977088;28;20035;-82
2024/01/23 03:58:57;;;;;;;2.47;1.40;;;5.20;99.90;;;;;;4976412;28;20034;-82
2024/01/23 04:01:22;;;;;;;3.00;1.10;;;5.20;99.90;;;;;;4977483;28;20106;-81
2024/01/23 04:03:48;;;;;;;2.83;1.00;;;5.10;99.90;;;;;;4977126;28;20035;-82
2024/01/23 04:06:13;;;;;;;6.43;1.30;;;5.00;99.90;;;;;;4977417;28;20118;-81
2024/01/23 04:08:39;;;;;;;6.57;1.20;;;5.00;99.90;;;;;;4976974;28;20031;-82
2024/01/23 04:11:05;;;;;;;4.77;1.50;;;5.00;99.90;;;;;;4976458;28;20030;-80
2024/01/23 04:13:30;;;;;;;4.97;1.33;;;4.90;99.90;;;;;;4976276;28;20023;-82
2024/01/23 04:15:56;;;;;;;7.87;1.47;;;4.90;99.90;;;;;;4976054;28;20066;-82
2024/01/23 04:18:22;;;;;;;6.17;1.40;;;4.90;99.90;;;;;;4976991;28;20134;-81
2024/01/23 04:20:47;;;;;;;4.57;1.37;;;4.90;99.90;;;;;;4976470;28;20034;-81
2024/01/23 04:23:13;;;;;;;3.80;1.20;;;4.90;99.90;;;;;;4976547;28;20034;-81
2024/01/23 04:25:38;;;;;;;5.73;1.10;;;4.90;99.90;;;;;;4977574;28;20038;-80
2024/01/23 04:28:04;;;;;;;5.73;1.40;;;4.90;99.90;;;;;;4976732;28;20050;-82
2024/01/23 04:30:29;;;;;;;5.53;1.27;;;4.90;99.90;;;;;;4975506;28;20482;-82
2024/01/23 04:32:55;;;;;;;4.93;1.30;;;4.90;99.90;;;;;;4976541;28;20105;-82
2024/01/23 04:35:22;;;;;;;7.40;1.60;;;4.90;99.90;;;;;;4976010;28;20035;-81
2024/01/23 04:37:47;;;;;;;5.17;1.33;;;5.00;99.90;;;;;;4975457;28;20030;-80
2024/01/23 04:40:13;;;;;;;5.67;1.43;;;4.90;99.90;;;;;;4975134;28;20413;-81
2024/01/23 04:42:39;;;;;;;6.77;1.53;;;5.00;99.90;;;;;;4977348;28;20110;-81
2024/01/23 04:45:08;;;;;;;8.40;1.50;;;5.00;99.90;;;;;;4976040;28;20053;-82
2024/01/23 04:47:34;;;;;;;9.30;1.70;;;5.00;99.90;;;;;;4976359;28;20117;-80
2024/01/23 04:49:59;;;;;;;5.40;1.73;;;4.90;99.90;;;;;;4975170;28;20065;-81
2024/01/23 04:52:25;;;;;;;3.60;1.47;;;5.00;99.90;;;;;;4976076;28;20061;-80
2024/01/23 04:54:50;;;;;;;7.73;2.20;;;4.90;99.90;;;;;;4976494;28;20034;-81
2024/01/23 04:57:17;;;;;;;4.77;1.30;;;4.90;99.90;;;;;;4975079;28;20592;-81
2024/01/23 04:59:43;;;;;;;11.33;2.60;;;5.00;99.90;;;;;;4975983;28;20046;-81
2024/01/23 05:02:08;;;;;;;6.53;1.30;;;5.00;99.90;;;;;;4975629;28;20049;-81
2024/01/23 05:04:34;;;;;;;8.13;1.80;;;5.00;99.90;;;;;;4975279;28;20026;-81
2024/01/23 05:06:59;;;;;;;5.13;1.50;;;5.00;99.90;;;;;;4973843;28;20035;-80
2024/01/23 05:09:29;;;;;;;5.70;1.40;;;5.00;99.90;;;;;;4975378;28;20047;-81
2024/01/23 05:11:55;;;;;;;6.33;1.43;;;4.90;99.90;;;;;;4973916;28;20034;-81
2024/01/23 05:14:20;;;;;;;5.97;1.53;;;4.90;99.90;;;;;;4974369;28;20034;-82
2024/01/23 05:16:46;;;;;;;5.93;1.50;;;4.90;99.90;;;;;;4972383;28;21176;-80
2024/01/23 05:19:11;;;;;;;6.97;1.80;;;4.90;99.90;;;;;;4971154;28;20038;-81
2024/01/23 05:21:37;;;;;;;6.27;1.60;;;4.90;99.90;;;;;;4974425;28;20022;-81
2024/01/23 05:24:03;;;;;;;8.03;1.50;;;4.90;99.90;;;;;;4969397;28;20027;-83
2024/01/23 05:26:29;;;;;;;5.60;1.40;;;4.90;99.90;;;;;;4970903;28;20058;-83
2024/01/23 05:28:54;;;;;;;6.83;1.30;;;4.80;99.90;;;;;;4955588;28;21255;-82
2024/01/23 05:31:20;;;;;;;4.90;1.50;;;4.80;99.90;;;;;;4971565;28;20019;-82
2024/01/23 05:33:45;;;;;;;3.97;1.20;;;4.80;99.90;;;;;;4974140;28;20035;-83
2024/01/23 05:36:11;;;;;;;7.10;1.60;;;4.70;99.90;;;;;;4955807;28;20034;-82
2024/01/23 05:38:36;;;;;;;6.93;1.60;;;4.80;99.90;;;;;;4973612;28;20022;-82
2024/01/23 05:41:03;;;;;;;6.30;1.30;;;4.70;99.90;;;;;;4972650;28;20045;-82
2024/01/23 05:43:28;;;;;;;5.07;1.70;;;4.80;99.90;;;;;;4973731;28;20074;-83
2024/01/23 05:45:54;;;;;;;8.90;1.50;;;4.80;99.90;;;;;;4971982;28;20034;-82
2024/01/23 05:48:19;;;;;;;7.13;1.50;;;4.80;99.90;;;;;;4971502;28;20090;-83
2024/01/23 05:50:45;;;;;;;7.10;1.50;;;4.80;99.90;;;;;;4971456;28;20026;-83
2024/01/23 05:53:11;;;;;;;8.03;1.97;;;4.90;99.90;;;;;;4969573;28;20115;-83
2024/01/23 05:55:36;;;;;;;7.77;1.63;;;4.90;99.90;;;;;;4972619;28;20026;-83
2024/01/23 05:58:02;;;;;;;4.37;1.30;;;5.00;99.90;;;;;;4970720;28;20086;-82
2024/01/23 06:00:27;;;;;;;4.60;1.40;;;5.00;99.90;;;;;;4971118;28;20082;-83
2024/01/23 06:02:53;;;;;;;8.93;1.73;;;5.00;99.90;;;;;;4972615;28;20057;-83
2024/01/23 06:05:19;;;;;;;9.53;2.47;;;5.00;99.90;;;;;;4971869;28;20031;-82
2024/01/23 06:07:49;;;;;;;5.93;1.53;;;5.00;99.90;;;;;;4971531;28;20027;-83
2024/01/23 06:10:16;;;;;;;7.33;1.80;;;5.00;99.90;;;;;;4972694;28;20046;-82
2024/01/23 06:12:41;;;;;;;6.03;1.60;;;5.00;99.90;;;;;;4970584;28;20039;-84
2024/01/23 06:15:08;;;;;;;8.10;1.67;;;5.10;99.90;;;;;;4972076;28;20037;-82
2024/01/23 06:17:33;;;;;;;5.87;1.90;;;5.10;99.90;;;;;;4973753;28;20045;-84
2024/01/23 06:20:01;;;;;;;5.60;1.40;;;5.10;99.90;;;;;;4973497;28;21063;-81
2024/01/23 06:22:27;;;;;;;9.23;1.70;;;5.10;99.90;;;;;;4970379;28;20130;-75
2024/01/23 06:25:10;;;;;;;6.17;1.97;;;5.10;99.90;;;;;;4970881;28;20154;-84
2024/01/23 06:27:36;;;;;;;7.33;1.50;;;5.00;99.90;;;;;;4954509;28;20023;-84
2024/01/23 06:30:02;;;;;;;7.80;1.50;;;5.00;99.90;;;;;;4955365;28;20044;-84
2024/01/23 06:32:28;;;;;;;6.20;1.40;;;5.00;99.90;;;;;;4970868;28;20031;-84
2024/01/23 06:34:54;;;;;;;4.90;1.50;;;5.00;99.90;;;;;;4970517;28;20031;-84
2024/01/23 06:37:20;;;;;;;5.43;1.40;;;5.00;99.90;;;;;;4972175;28;20034;-84
2024/01/23 06:39:46;;;;;;;9.67;1.90;;;5.00;99.90;;;;;;4969834;28;20053;-83
2024/01/23 06:42:11;;;;;;;7.40;1.87;;;5.00;99.90;;;;;;4969506;28;20078;-84
2024/01/23 06:44:37;;;;;;;9.53;2.27;;;5.00;99.90;;;;;;4973764;28;21554;-82
2024/01/23 06:47:03;;;;;;;7.13;1.77;;;5.00;99.90;;;;;;4974223;28;20027;-83
2024/01/23 06:49:29;;;;;;;8.40;1.60;;;5.10;99.90;;;;;;4973547;28;20866;-84
2024/01/23 06:51:54;;;;;;;4.70;1.40;;;5.00;99.90;;;;;;4974981;28;20022;-84
2024/01/23 06:54:20;;;;;;;8.40;1.70;;;5.10;99.90;;;;;;4973792;28;20035;-85
2024/01/23 06:56:46;;;;;;;6.70;1.63;;;5.10;99.90;;;;;;4971998;28;20027;-85
2024/01/23 06:59:12;;;;;;;13.00;2.43;;;5.10;99.90;;;;;;4976004;28;20106;-83
2024/01/23 07:01:38;;;;;;;7.00;1.60;;;5.00;99.90;;;;;;4961904;28;20038;-84
2024/01/23 07:04:04;;;;;;;7.63;1.67;;;5.00;99.90;;;;;;4975960;28;20022;-83
2024/01/23 07:06:29;;;;;;;8.87;1.87;;;5.00;99.90;;;;;;4979641;28;20045;-83
2024/01/23 07:08:55;;;;;;;9.27;1.77;;;5.00;99.90;;;;;;4971414;28;20074;-73
2024/01/23 07:11:20;;;;;;;5.33;1.60;;;5.00;99.90;;;;;;4974433;28;20042;-83
2024/01/23 07:13:47;;;;;;;8.60;2.00;;;4.90;99.90;;;;;;4978031;28;20043;-83
2024/01/23 07:16:12;;;;;;;10.50;1.80;;;4.90;99.90;;;;;;4979555;28;20035;-83
2024/01/23 07:18:38;;;;;;;6.00;1.93;;;4.90;99.90;;;;;;4976013;28;20467;-83
2024/01/23 07:21:04;;;;;;;9.37;1.93;;;4.80;99.90;;;;;;4978436;28;20504;-83
2024/01/23 07:23:30;;;;;;;4.77;1.40;;;4.80;99.90;;;;;;4978768;28;20114;-83
2024/01/23 07:25:58;;;;;;;5.73;1.90;;;4.90;99.90;;;;;;4978743;28;20027;-84
2024/01/23 07:28:23;;;;;;;6.30;1.67;;;4.90;99.90;;;;;;4979655;28;20506;-83
2024/01/23 07:30:49;;;;;;;9.43;2.00;;;4.80;99.90;;;;;;4976698;28;20027;-89
2024/01/23 07:33:15;;;;;;;14.73;2.43;;;4.70;99.90;;;;;;4964261;28;20053;-89
2024/01/23 07:35:41;;;;;;;9.27;1.87;;;4.70;99.90;;;;;;4965829;28;20026;-79
2024/01/23 07:38:10;;;;;;;8.83;1.90;;;4.60;99.90;;;;;;4964930;28;20039;-80
2024/01/23 07:40:37;;;;;;;4.13;1.40;;;4.60;99.90;;;;;;4966601;28;20031;-82
2024/01/23 07:43:02;;;;;;;4.73;1.60;;;4.60;99.90;;;;;;4966852;28;20747;-80
2024/01/23 07:45:28;;;;;;;6.23;1.70;;;4.50;99.90;;;;;;4965848;28;20023;-80
2024/01/23 07:47:53;;;;;;;8.23;2.60;;;4.50;99.90;;;;;;4963581;28;20114;-80
2024/01/23 07:50:19;;;;;;;6.87;1.77;;;4.50;99.90;;;;;;4961358;28;20093;-80
2024/01/23 07:52:44;;;;;;;4.53;1.57;;;4.40;99.90;;;;;;4963187;28;20044;-80
2024/01/23 07:55:10;;;;;;;8.93;1.53;;;4.50;99.90;;;;;;4965130;28;20105;-80
2024/01/23 07:57:36;;;;;;;6.03;1.73;;;4.40;99.90;;;;;;4964976;28;20027;-82
2024/01/23 08:00:02;;;;;;;2.13;1.20;;;4.40;99.90;;;;;;4965091;28;20572;-80
2024/01/23 08:02:28;;;;;;;2.87;1.63;;;4.40;99.90;;;;;;4965845;28;20035;-80
2024/01/23 08:04:53;;;;;;;6.53;1.43;;;4.50;99.90;;;;;;4964729;28;20042;-80
2024/01/23 08:07:19;;;;;;;2.97;1.00;;;4.40;99.90;;;;;;4964496;28;20030;-81
2024/01/23 08:09:44;;;;;;;5.83;1.30;;;4.30;99.90;;;;;;4963200;28;20026;-80
2024/01/23 08:12:10;;;;;;;5.07;1.27;;;4.30;99.90;;;;;;4964074;28;20501;-80
2024/01/23 08:14:35;;;;;;;2.27;1.00;;;4.20;99.90;;;;;;4964253;28;20027;-80
2024/01/23 08:17:01;;;;;;;4.77;1.10;;;4.20;99.90;;;;;;4964193;28;20113;-82
2024/01/23 08:19:27;;;;;;;2.83;1.17;;;4.10;99.90;;;;;;4963170;28;20039;-81
2024/01/23 08:21:52;;;;;;;2.13;1.10;;;4.10;99.90;;;;;;4965802;28;20023;-82
2024/01/23 08:24:18;;;;;;;4.57;1.47;;;4.00;99.90;;;;;;4948529;28;20016;-82
2024/01/23 08:26:43;;;;;;;5.47;1.33;;;4.10;99.90;;;;;;4965918;28;20645;-83
2024/01/23 08:29:09;;;;;;;6.47;1.30;;;4.00;99.90;;;;;;4965673;28;20666;-81
2024/01/23 08:31:34;;;;;;;4.80;1.10;;;4.00;99.90;;;;;;4966177;28;20046;-82
2024/01/23 08:34:00;;;;;;;7.30;1.03;;;4.00;99.90;;;;;;4963937;28;20023;-80
2024/01/23 08:36:25;;;;;;;5.00;1.20;;;4.00;99.90;;;;;;4965445;28;20026;-82
2024/01/23 08:38:51;;;;;;;4.70;1.20;;;3.90;99.90;;;;;;4965255;28;20031;-82
2024/01/23 08:41:17;;;;;;;3.13;1.00;;;4.00;99.90;;;;;;4964944;28;20030;-82
2024/01/23 08:43:42;;;;;;;4.60;1.20;;;3.90;99.90;;;;;;4948296;28;20514;-83
2024/01/23 08:46:08;;;;;;;1.87;1.00;;;3.90;99.90;;;;;;4965997;28;20050;-82
2024/01/23 08:48:33;;;;;;;3.40;1.13;;;3.80;99.90;;;;;;4966088;28;20592;-82
2024/01/23 08:50:59;;;;;;;2.97;1.27;;;3.80;99.90;;;;;;4961731;28;20027;-83
2024/01/23 08:53:24;;;;;;;4.03;1.40;;;3.80;99.90;;;;;;4964446;28;20035;-83
2024/01/23 08:55:50;;;;;;;3.90;1.20;;;3.70;99.90;;;;;;4966060;28;20034;-82
2024/01/23 08:58:17;;;;;;;5.20;1.13;;;3.70;99.90;;;;;;4965318;28;20058;-82
2024/01/23 09:00:43;;;;;;;4.77;1.93;;;3.70;99.90;;;;;;4965345;28;20065;-83
2024/01/23 09:03:08;;;;;;;2.70;1.30;;;3.70;99.90;;;;;;4966633;28;20047;-82
2024/01/23 09:05:34;;;;;;;3.33;1.30;;;3.70;99.90;;;;;;4966920;28;20035;-82
2024/01/23 09:07:59;;;;;;;2.40;1.20;;;3.70;99.90;;;;;;4965820;28;20035;-83
2024/01/23 09:10:25;;;;;;;3.43;1.33;;;3.70;99.90;;;;;;4965150;28;20045;-83
2024/01/23 09:12:50;;;;;;;3.43;1.30;;;3.70;99.90;;;;;;4966305;28;20073;-83
2024/01/23 09:15:16;;;;;;;4.47;1.30;;;3.70;99.90;;;;;;4964613;28;20033;-83
2024/01/23 09:17:41;;;;;;;7.33;1.50;;;3.60;99.90;;;;;;4967540;28;20042;-83
2024/01/23 09:20:08;;;;;;;4.87;1.40;;;3.60;99.90;;;;;;4964851;28;20042;-84
2024/01/23 09:22:33;;;;;;;3.30;1.60;;;3.60;99.90;;;;;;4950027;28;20058;-86
2024/01/23 09:24:59;;;;;;;3.73;1.50;;;3.50;99.90;;;;;;4965994;28;20031;-85
2024/01/23 09:27:25;;;;;;;9.13;1.70;;;3.60;99.90;;;;;;4949115;28;20029;-84
2024/01/23 09:29:52;;;;;;;5.27;1.73;;;3.60;99.90;;;;;;4967785;28;20042;-83
2024/01/23 09:32:17;;;;;;;7.00;1.50;;;3.60;99.90;;;;;;4967984;28;20810;-86
2024/01/23 09:34:43;;;;;;;5.20;2.10;;;3.60;99.90;;;;;;4967966;28;20049;-83
2024/01/23 09:37:09;;;;;;;3.90;1.60;;;3.60;99.90;;;;;;4966867;28;20023;-83
2024/01/23 09:39:34;;;;;;;7.73;1.93;;;3.60;99.90;;;;;;4967013;28;20027;-83
2024/01/23 09:42:03;;;;;;;6.00;1.70;;;3.60;99.90;;;;;;4949608;28;20478;-83
2024/01/23 09:44:29;;;;;;;3.03;1.40;;;3.70;99.90;;;;;;4966399;28;20034;-82
2024/01/23 09:46:55;;;;;;;5.97;1.80;;;3.80;99.90;;;;;;4966777;28;20026;-83
2024/01/23 09:49:21;;;;;;;7.03;1.70;;;3.80;99.90;;;;;;4966271;28;20042;-83
2024/01/23 09:51:49;;;;;;;4.07;1.90;;;3.80;99.90;;;;;;4967206;28;20023;-83
2024/01/23 09:54:15;;;;;;;4.90;2.00;;;3.80;99.90;;;;;;4949234;28;20042;-83
2024/01/23 09:56:40;;;;;;;3.67;1.53;;;3.90;99.90;;;;;;4966046;28;20042;-83
2024/01/23 09:59:07;;;;;;;6.33;1.80;;;3.90;99.90;;;;;;4965248;28;20486;-83
2024/01/23 10:01:33;;;;;;;7.20;2.03;;;4.00;99.90;;;;;;4966986;28;20049;-83
2024/01/23 10:04:02;;;;;;;7.30;1.67;;;4.10;99.90;;;;;;4965499;28;20077;-83
2024/01/23 10:06:28;;;;;;;3.63;1.40;;;4.20;99.90;;;;;;4966255;28;20961;-83
2024/01/23 10:08:53;;;;;;;12.07;2.80;;;4.30;99.90;;;;;;4965211;28;20030;-82
2024/01/23 10:11:19;;;;;;;9.03;1.80;;;4.40;99.90;;;;;;4965757;28;20026;-82
2024/01/23 10:13:46;;;;;;;9.03;1.90;;;4.50;99.90;;;;;;4965887;28;20134;-82
2024/01/23 10:16:14;;;;;;;6.73;1.77;;;4.60;99.90;;;;;;4965631;28;20034;-82
2024/01/23 10:18:39;;;;;;;7.00;2.00;;;4.60;99.90;;;;;;4966325;28;20929;-82
2024/01/23 10:21:05;;;;;;;8.63;1.90;;;4.70;99.90;;;;;;4965665;28;20043;-82
2024/01/23 10:23:33;;;;;;;5.80;1.60;;;4.80;99.90;;;;;;4967384;28;20059;-82
2024/01/23 10:25:59;;;;;;;8.33;1.73;;;4.80;99.90;;;;;;4966698;28;20035;-83
2024/01/23 10:28:24;;;;;;;4.80;1.47;;;4.80;99.90;;;;;;4967183;28;20033;-83
2024/01/23 10:30:50;;;;;;;4.77;1.57;;;5.00;99.90;;;;;;4966268;28;20517;-83
2024/01/23 10:33:16;;;;;;;4.37;1.40;;;5.00;99.90;;;;;;4948743;28;20038;-84
2024/01/23 10:35:42;;;;;;;3.77;1.30;;;5.10;99.90;;;;;;4948939;28;20034;-83
2024/01/23 10:38:14;;;;;;;3.27;1.13;;;5.10;99.90;;;;;;4965472;28;20060;-84
2024/01/23 10:40:40;;;;;;;5.53;1.50;;;5.10;99.90;;;;;;4965519;28;20038;-83
2024/01/23 10:43:06;;;;;;;3.90;1.50;;;5.20;99.90;;;;;;4965394;28;20046;-82
2024/01/23 10:45:32;;;;;;;6.13;1.30;;;5.20;99.90;;;;;;4965907;28;20144;-83
2024/01/23 10:48:00;;;;;;;7.33;1.43;;;5.30;99.90;;;;;;4965837;28;20043;-82
2024/01/23 10:50:26;;;;;;;5.87;1.60;;;5.40;99.90;;;;;;4965728;28;20043;-83
2024/01/23 10:52:55;;;;;;;4.37;1.60;;;5.50;99.90;;;;;;4966831;28;20037;-83
2024/01/23 10:55:23;;;;;;;8.50;1.70;;;5.70;99.90;;;;;;4966121;28;20034;-83
2024/01/23 10:57:50;;;;;;;5.63;1.50;;;5.80;99.90;;;;;;4967208;28;20034;-82
2024/01/23 11:00:21;;;;;;;6.23;1.70;;;5.90;99.90;;;;;;4965333;28;20039;-82
2024/01/23 11:02:50;;;;;;;8.30;1.40;;;5.90;99.90;;;;;;4967318;28;20154;-82
2024/01/23 11:05:19;;;;;;;4.37;1.33;;;5.90;99.90;;;;;;4967094;28;20027;-82
2024/01/23 11:08:16;;;;;;;6.70;1.50;;;5.90;99.90;;;;;;4966071;28;20027;-82
2024/01/23 11:11:05;;;;;;;8.50;1.70;;;5.90;99.90;;;;;;4959585;28;20066;-82
2024/01/23 11:13:38;;;;;;;5.07;1.80;;;5.80;99.90;;;;;;4966507;28;21530;-83
2024/01/23 11:16:05;;;;;;;12.00;2.67;;;5.80;99.90;;;;;;4965903;28;20023;-82
2024/01/23 11:18:32;;;;;;;7.70;1.60;;;5.80;99.90;;;;;;4965214;28;20027;-82
2024/01/23 11:21:13;;;;;;;10.93;1.93;;;5.90;99.90;;;;;;4966401;28;20068;-82
2024/01/23 11:23:46;;;;;;;5.80;1.50;;;6.00;99.90;;;;;;4966792;28;20051;-82
2024/01/23 11:26:22;;;;;;;4.70;1.30;;;6.00;99.90;;;;;;4961604;28;20034;-82
2024/01/23 11:28:54;;;;;;;10.00;1.90;;;6.10;99.90;;;;;;4963723;28;20035;-83
2024/01/23 11:31:25;;;;;;;11.30;2.60;;;6.20;99.90;;;;;;4969920;28;20035;-83
2024/01/23 11:33:51;;;;;;;10.00;1.73;;;6.30;99.90;;;;;;4966942;28;20362;-82
2024/01/23 11:36:25;;;;;;;5.33;1.77;;;6.20;99.90;;;;;;4967546;28;20034;-82
2024/01/23 11:38:52;;;;;;;10.13;2.43;;;6.20;99.90;;;;;;4967171;28;20062;-82
2024/01/23 11:41:23;;;;;;;11.67;2.90;;;6.20;99.90;;;;;;4969940;28;20035;-82
2024/01/23 11:43:49;;;;;;;8.43;1.93;;;6.20;99.90;;;;;;4952101;28;20031;-82
2024/01/23 11:46:17;;;;;;;7.53;1.80;;;6.30;99.90;;;;;;4966343;28;20027;-82
2024/01/23 11:48:44;;;;;;;7.40;1.90;;;6.30;99.90;;;;;;4968926;28;20101;-82
2024/01/23 11:51:12;;;;;;;11.67;1.80;;;6.40;99.90;;;;;;4970200;28;20018;-83
2024/01/23 11:53:40;;;;;;;6.33;1.83;;;6.50;99.90;;;;;;4967698;28;20142;-83
2024/01/23 11:56:06;;;;;;;9.57;2.37;;;6.60;99.90;;;;;;4969214;28;20031;-82
2024/01/23 11:58:32;;;;;;;7.80;1.93;;;6.60;99.90;;;;;;4965703;28;20061;-82
2024/01/23 12:00:58;;;;;;;15.07;2.80;;;6.70;99.90;;;;;;4968626;28;20038;-82
2024/01/23 12:03:24;;;;;;;10.73;2.10;;;6.70;99.90;;;;;;4967317;28;20114;-82
2024/01/23 12:05:53;;;;;;;11.40;2.17;;;6.90;99.90;;;;;;4965788;28;21428;-82
2024/01/23 12:08:18;;;;;;;11.07;2.10;;;6.90;99.90;;;;;;4966583;28;20121;-82
2024/01/23 12:10:44;;;;;;;8.53;2.43;;;7.10;99.90;;;;;;4970743;28;20098;-83
2024/01/23 12:13:09;;;;;;;8.53;2.57;;;7.20;99.90;;;;;;4972683;28;20718;-82
2024/01/23 12:15:35;;;;;;;7.63;2.37;;;7.20;99.90;;;;;;4972689;28;20026;-82
2024/01/23 12:18:01;;;;;;;13.33;2.40;;;7.20;99.90;;;;;;4969304;28;20031;-83
2024/01/23 12:20:26;;;;;;;8.83;2.03;;;7.20;99.90;;;;;;4971616;28;20042;-82
2024/01/23 12:22:52;;;;;;;7.67;1.57;;;7.20;99.90;;;;;;4967245;28;20093;-83
2024/01/23 12:25:18;;;;;;;8.97;1.97;;;7.30;99.90;;;;;;4966197;28;20046;-82
2024/01/23 12:27:44;;;;;;;7.60;2.27;;;7.30;99.90;;;;;;4968179;28;20054;-83
2024/01/23 12:30:12;;;;;;;9.23;2.53;;;7.20;99.90;;;;;;4973983;28;20023;-83
2024/01/23 12:32:38;;;;;;;10.67;2.57;;;7.20;99.90;;;;;;4969207;28;20046;-83
2024/01/23 12:35:07;;;;;;;7.53;1.90;;;7.20;99.90;;;;;;4971665;28;20038;-82
2024/01/23 12:37:33;;;;;;;7.77;1.70;;;7.20;99.90;;;;;;4971791;28;20031;-83
2024/01/23 12:40:05;;;;;;;7.30;1.87;;;7.20;99.90;;;;;;4966777;28;20409;-86
2024/01/23 12:42:30;;;;;;;11.07;1.80;;;7.20;99.90;;;;;;4944797;28;20482;-83
2024/01/23 12:44:57;;;;;;;9.37;1.93;;;7.30;99.90;;;;;;4961299;28;20071;-84
2024/01/23 12:47:22;;;;;;;5.23;1.70;;;7.30;99.90;;;;;;4962944;28;20031;-83
2024/01/23 12:49:48;;;;;;;8.93;1.93;;;7.40;99.90;;;;;;4962954;28;20817;-85